Nearby METAR Reports


NZAA - Auckland Intl Ar, New Zealand
Distance from station: NW 162km
Updated: 22/10/2017 06:00
Mostly cloudy
Mostly cloudy
 Wind from WNW
Wind: WNW 11 km/h
Temperature: 15°C
Dew Point: 12°C
Humidity: 82%
Barometer: 1007 hPa
Clouds: Mostly cloudy
Visibility: 10 km
Cloud details: Mostly cloudy 823 m
2017/10/21 17:00 NZAA 211700Z AUTO 30006KT 9999 BKN027/// 15/12 Q1007 TEMPO 6000 RA BKN012
NZWN - Wellington Intl, New Zealand
Distance from station: SSW 357km
Updated: 22/10/2017 06:00
Clear
Clear
 Wind from N
Wind: N 19 km/h
Temperature: 12°C
Dew Point: 7°C
Humidity: 72%
Barometer: 999 hPa
Clouds: Clear
Visibility: 10 km
2017/10/21 17:00 NZWN 211700Z AUTO 36010KT 9999 NCD 12/07 Q0999 NOSIG
 
NZCH - Christchurch Int, New Zealand
Distance from station: SSW 647km
Updated: 22/10/2017 06:00
Clear
Clear
 Wind from NNE
Wind: NNE 6 km/h
Temperature: 7°C
Dew Point: 6°C
Humidity: 93%
Barometer: 996 hPa
Clouds: Clear
Visibility: 10 km
2017/10/21 17:00 NZCH 211700Z AUTO 03003KT 9999 NCD 07/06 Q0996 BECMG 30010KT
YSNF - Norfolk Island A, Australia
Distance from station: NW 1258km
Updated: 22/10/2017 06:00
Mostly cloudy
Mostly cloudy
 Wind from N
Wind: N 15 km/h
Temperature: 17°C
Dew Point: 14°C
Humidity: 83%
Barometer: 1014 hPa
Clouds: Mostly cloudy
Visibility: 10 km
Cloud details: Mostly cloudy 640 m
2017/10/21 17:00 YSNF 211700Z AUTO 36008KT 9999 // BKN021 17/14 Q1014